This is the latest recevied weather packets stored in our database for station/object OE-11204. If no packets are shown the sender has not sent any weather packets the latest 10 day(s).
| Time | Temp. | Humidity | Pressure | Rain* | Wind** | Luminosity | Snow |
|---|---|---|---|---|---|---|---|
| 1788017715 | 22.78° C | 58% | 1013.4 hPa | 0 mm | - | 359 W/m² | - |
| 1788017115 | 22.78° C | 55% | 1013.3 hPa | 0 mm | - | 402 W/m² | - |
| 1788016288 | 22.78° C | 55% | 1013.3 hPa | 0 mm | - | 439 W/m² | - |
| 1788015915 | 23.33° C | 56% | 1013.3 hPa | 0 mm | - | 526 W/m² | - |
| 1788015315 | 22.78° C | 58% | 1013.3 hPa | 0 mm | - | 390 W/m² | - |
| 1788014488 | 22.22° C | 60% | 1013.5 hPa | 0 mm | - | 390 W/m² | - |
| 1788014115 | 22.22° C | 58% | 1013.7 hPa | 0 mm | - | 396 W/m² | - |
| 1788013514 | 22.22° C | 59% | 1013.7 hPa | 0 mm | - | 254 W/m² | - |
| 1788012688 | 22.78° C | 55% | 1013.8 hPa | 0 mm | - | 359 W/m² | - |
| 1788012315 | 22.78° C | 54% | 1013.8 hPa | 0 mm | - | 464 W/m² | - |
| 1788011715 | 23.33° C | 54% | 1013.7 hPa | 0 mm | - | 526 W/m² | - |
| 1788010888 | 23.33° C | 52% | 1013.6 hPa | 0 mm | - | 656 W/m² | - |
| 1788010515 | 23.89° C | 52% | 1013.5 hPa | 0 mm | - | 687 W/m² | - |
| 1788009914 | 23.89° C | 52% | 1013.4 hPa | 0 mm | - | 674 W/m² | - |
| 1788009087 | 23.89° C | 50% | 1013.5 hPa | 0 mm | - | 786 W/m² | - |
| 1788008715 | 23.89° C | 50% | 1013.6 hPa | 0 mm | - | 625 W/m² | - |
| 1788008115 | 23.33° C | 50% | 1013.8 hPa | 0 mm | - | 334 W/m² | - |
| 1788007288 | 23.33° C | 47% | 1013.9 hPa | 0 mm | - | 594 W/m² | - |
| 1788006915 | 23.89° C | 46% | 1013.6 hPa | 0 mm | - | 749 W/m² | - |
| 1788006315 | 22.78° C | 50% | 1013.9 hPa | 0 mm | - | 303 W/m² | - |
| 1788005487 | 22.78° C | 47% | 1014 hPa | 0 mm | - | 285 W/m² | - |
| 1788005115 | 23.33° C | 45% | 1013.9 hPa | 0 mm | - | 557 W/m² | - |
| 1788004515 | 23.89° C | 45% | 1013.8 hPa | 0 mm | - | 594 W/m² | - |
| 1788003688 | 23.89° C | 49% | 1013.8 hPa | 0 mm | - | 569 W/m² | - |
| 1788003315 | 24.44° C | 43% | 1013.9 hPa | 0 mm | - | 687 W/m² | - |
* Rain latest hour (hover to see other rain measurements)
** Current wind speed in m/s (hover to see current wind gust speed)